Time;durP1;ratioP1;P1;durP2;ratioP2;P2;SDS_P1;SDS_P2;PMS_P1;PMS_P2;Temp;Humidity;BMP_temperature;BMP_pressure;BME280_temperature;BME280_humidity;BME280_pressure;Samples;Min_cycle;Max_cycle;Signal;HPM_P1;HPM_P2
2024/01/26 00:02:04;;;;;;;;;6.00;5.00;;;;;12.37;86.24;102459.47;5126860;27;60230;-47
2024/01/26 00:04:29;;;;;;;;;5.00;5.00;;;;;12.32;86.60;102462.31;5125247;27;45514;-49
2024/01/26 00:06:55;;;;;;;;;9.00;6.33;;;;;12.32;86.41;102464.97;5118068;27;45469;-46
2024/01/26 00:09:21;;;;;;;;;5.00;5.00;;;;;12.28;86.77;102460.66;5120241;27;46182;-48
2024/01/26 00:11:46;;;;;;;;;4.67;4.67;;;;;12.24;86.93;102470.53;5124913;27;66928;-50
2024/01/26 00:14:11;;;;;;;;;5.00;4.67;;;;;12.19;87.93;102467.13;5126528;27;53825;-50
2024/01/26 00:16:37;;;;;;;;;4.67;4.67;;;;;12.17;86.73;102454.78;5121124;27;67640;-52
2024/01/26 00:19:03;;;;;;;;;7.33;6.33;;;;;12.11;87.70;102452.28;5122143;27;46258;-50
2024/01/26 00:21:29;;;;;;;;;5.33;4.00;;;;;12.04;87.69;102448.94;5119386;27;45399;-49
2024/01/26 00:23:54;;;;;;;;;5.00;5.00;;;;;12.00;88.03;102442.81;5122162;27;45420;-48
2024/01/26 00:26:20;;;;;;;;;5.33;5.33;;;;;11.97;87.60;102424.25;5117606;27;45545;-48
2024/01/26 00:28:45;;;;;;;;;3.67;3.67;;;;;11.97;87.72;102432.25;5123884;27;45250;-48
2024/01/26 00:31:17;;;;;;;;;7.00;5.00;;;;;11.99;88.30;102437.53;5127564;27;46044;-46
2024/01/26 00:33:43;;;;;;;;;4.00;4.00;;;;;12.02;88.32;102429.41;5117021;27;45346;-48
2024/01/26 00:36:09;;;;;;;;;4.67;4.67;;;;;12.06;88.57;102431.97;5121379;27;45408;-50
2024/01/26 00:38:34;;;;;;;;;4.67;4.67;;;;;12.13;88.58;102442.44;5121712;27;46173;-49
2024/01/26 00:40:59;;;;;;;;;5.00;3.00;;;;;12.18;88.30;102445.84;5115628;27;71857;-50
2024/01/26 00:43:25;;;;;;;;;5.67;5.67;;;;;12.23;88.76;102446.59;5118382;27;67516;-49
2024/01/26 00:45:50;;;;;;;;;5.00;5.00;;;;;12.28;88.52;102433.09;5124599;27;69519;-48
2024/01/26 00:48:16;;;;;;;;;7.00;5.67;;;;;12.31;88.40;102439.22;5125614;27;46060;-48
2024/01/26 00:50:41;;;;;;;;;5.67;5.00;;;;;12.37;88.41;102438.13;5121748;27;71669;-51
2024/01/26 00:53:06;;;;;;;;;4.67;4.67;;;;;12.40;88.30;102430.03;5127454;27;69426;-48
2024/01/26 00:55:32;;;;;;;;;5.00;5.00;;;;;12.41;88.30;102416.66;5120072;27;45540;-50
2024/01/26 00:57:57;;;;;;;;;5.00;5.00;;;;;12.46;87.94;102412.94;5129027;27;46115;-49
2024/01/26 01:00:24;;;;;;;;;5.00;4.67;;;;;12.47;88.13;102412.03;5123382;27;45327;-47
2024/01/26 01:02:53;;;;;;;;;6.33;6.33;;;;;12.49;87.83;102405.72;5125780;27;45429;-52
2024/01/26 01:05:18;;;;;;;;;4.00;4.00;;;;;12.49;87.88;102408.41;5120153;27;45464;-47
2024/01/26 01:07:44;;;;;;;;;6.67;6.67;;;;;12.49;88.21;102403.06;5121825;27;46647;-50
2024/01/26 01:10:10;;;;;;;;;6.00;6.00;;;;;12.52;88.06;102410.09;5122257;27;45567;-49
2024/01/26 01:12:38;;;;;;;;;5.00;5.00;;;;;12.53;87.85;102410.03;5126424;27;45562;-50
2024/01/26 01:15:03;;;;;;;;;5.33;4.00;;;;;12.54;87.72;102419.81;5115543;27;45559;-49
2024/01/26 01:17:29;;;;;;;;;5.00;5.00;;;;;12.56;87.73;102414.41;5123475;27;46960;-49
2024/01/26 01:19:54;;;;;;;;;8.67;8.67;;;;;12.58;87.87;102402.75;5118382;27;68652;-47
2024/01/26 01:22:19;;;;;;;;;6.00;4.67;;;;;12.60;87.52;102402.69;5126379;27;45649;-49
2024/01/26 01:24:45;;;;;;;;;6.00;6.00;;;;;12.63;87.58;102399.06;5116164;27;69006;-47
2024/01/26 01:27:10;;;;;;;;;9.00;4.67;;;;;12.62;87.20;102399.97;5126098;27;72712;-47
2024/01/26 01:29:35;;;;;;;;;8.00;7.00;;;;;12.57;87.50;102392.13;5116769;27;49584;-49
2024/01/26 01:32:01;;;;;;;;;6.67;6.67;;;;;12.54;87.34;102410.91;5117116;27;68032;-48
2024/01/26 01:34:26;;;;;;;;;8.33;6.00;;;;;12.53;88.04;102401.16;5113290;27;45790;-47
2024/01/26 01:36:51;;;;;;;;;6.00;6.00;;;;;12.54;87.85;102402.88;5125019;27;71607;-51
2024/01/26 01:39:17;;;;;;;;;6.33;6.33;;;;;12.58;88.08;102410.75;5122036;27;45476;-50
2024/01/26 01:41:46;;;;;;;;;8.00;5.00;;;;;12.62;87.72;102402.63;5115290;27;69155;-50
2024/01/26 01:44:12;;;;;;;;;4.33;4.33;;;;;12.65;87.61;102407.91;5122946;27;45447;-48
2024/01/26 01:46:37;;;;;;;;;4.33;3.33;;;;;12.66;87.43;102405.16;5123310;27;74006;-46
2024/01/26 01:49:02;;;;;;;;;6.00;5.00;;;;;12.69;87.53;102417.53;5118786;27;72064;-46
2024/01/26 01:51:31;;;;;;;;;6.00;4.00;;;;;12.70;87.53;102421.97;5119907;27;69428;-49
2024/01/26 01:53:58;;;;;;;;;8.00;7.00;;;;;12.69;87.49;102418.41;5121913;27;45583;-49
2024/01/26 01:56:24;;;;;;;;;5.33;5.00;;;;;12.69;87.21;102402.38;5135015;27;45527;-47
2024/01/26 01:58:50;;;;;;;;;6.33;6.00;;;;;12.71;87.34;102405.00;5119492;27;54198;-47
2024/01/26 02:01:16;;;;;;;;;7.00;7.00;;;;;12.69;87.43;102402.38;5117706;27;45948;-48
2024/01/26 02:03:41;;;;;;;;;6.33;5.33;;;;;12.67;87.14;102398.91;5119288;27;69331;-46
2024/01/26 02:06:06;;;;;;;;;6.33;6.00;;;;;12.69;87.57;102405.06;5118410;27;73219;-48
2024/01/26 02:08:32;;;;;;;;;6.00;6.00;;;;;12.71;87.18;102405.88;5121606;27;69226;-50
2024/01/26 02:10:57;;;;;;;;;5.00;5.00;;;;;12.74;87.46;102405.78;5117429;27;64826;-49
2024/01/26 02:13:22;;;;;;;;;4.67;4.00;;;;;12.77;87.09;102403.94;5115314;27;67420;-49
2024/01/26 02:15:48;;;;;;;;;5.00;5.00;;;;;12.78;86.75;102395.00;5114154;27;68692;-47
2024/01/26 02:18:13;;;;;;;;;4.67;4.67;;;;;12.80;86.94;102394.03;5116306;27;65405;-48
2024/01/26 02:20:38;;;;;;;;;4.67;4.67;;;;;12.84;87.01;102389.44;5120447;27;45738;-48
2024/01/26 02:23:04;;;;;;;;;5.33;4.67;;;;;12.84;86.69;102390.34;5115713;27;45235;-49
2024/01/26 02:25:29;;;;;;;;;8.67;5.00;;;;;12.85;86.46;102397.44;5118978;27;59512;-49
2024/01/26 02:27:54;;;;;;;;;5.00;5.00;;;;;12.88;86.58;102391.06;5119710;27;69013;-49
2024/01/26 02:30:20;;;;;;;;;5.67;5.67;;;;;12.88;86.63;102388.41;5117173;27;63952;-50
2024/01/26 02:32:45;;;;;;;;;6.33;5.67;;;;;12.89;86.35;102375.03;5117448;27;70509;-47
2024/01/26 02:35:10;;;;;;;;;8.33;7.00;;;;;12.89;85.83;102369.69;5115242;27;75524;-47
2024/01/26 02:37:36;;;;;;;;;8.33;5.33;;;;;12.88;85.90;102369.72;5115886;27;45487;-47
2024/01/26 02:40:01;;;;;;;;;4.00;4.00;;;;;12.87;85.79;102374.19;5122562;27;45901;-51
2024/01/26 02:42:26;;;;;;;;;5.00;4.67;;;;;12.84;85.57;102371.63;5116133;27;69217;-51
2024/01/26 02:44:52;;;;;;;;;6.67;5.33;;;;;12.83;85.81;102374.38;5108812;27;74411;-50
2024/01/26 02:47:17;;;;;;;;;6.00;6.00;;;;;12.81;85.45;102373.53;5122581;27;45376;-52
2024/01/26 02:49:43;;;;;;;;;5.00;5.00;;;;;12.82;85.87;102372.63;5118776;27;45373;-52
2024/01/26 02:52:09;;;;;;;;;4.00;4.00;;;;;12.82;85.41;102359.25;5124913;27;64297;-51
2024/01/26 02:54:34;;;;;;;;;5.00;5.00;;;;;12.81;85.50;102357.50;5121137;27;74475;-50
2024/01/26 02:56:59;;;;;;;;;4.67;4.00;;;;;12.82;85.49;102349.44;5123168;27;67685;-51
2024/01/26 02:59:25;;;;;;;;;6.33;5.00;;;;;12.82;84.82;102357.47;5122333;27;45930;-48
2024/01/26 03:01:50;;;;;;;;;7.67;5.33;;;;;12.81;84.90;102349.50;5126184;27;45718;-52
2024/01/26 03:04:18;;;;;;;;;5.67;4.67;;;;;12.78;85.29;102353.16;5121203;27;47118;-48
2024/01/26 03:06:44;;;;;;;;;8.00;5.00;;;;;12.79;85.09;102354.00;5139093;27;45443;-50
2024/01/26 03:09:09;;;;;;;;;3.33;3.33;;;;;12.78;85.17;102365.66;5132676;27;45369;-50
2024/01/26 03:11:38;;;;;;;;;6.00;6.00;;;;;12.78;85.27;102370.97;5117079;27;56971;-52
2024/01/26 03:14:05;;;;;;;;;4.00;4.00;;;;;12.76;84.83;102378.16;5120229;27;45482;-49
2024/01/26 03:16:34;;;;;;;;;4.00;4.00;;;;;12.78;85.34;102373.66;5130327;27;45421;-49
2024/01/26 03:19:00;;;;;;;;;5.33;4.67;;;;;12.79;85.22;102364.69;5122033;27;45573;-50
2024/01/26 03:21:26;;;;;;;;;5.67;4.67;;;;;12.79;84.95;102370.94;5121624;27;45523;-47
2024/01/26 03:23:51;;;;;;;;;6.00;4.00;;;;;12.83;85.16;102375.22;5124130;27;45685;-51
2024/01/26 03:26:16;;;;;;;;;8.00;6.00;;;;;12.84;84.46;102354.72;5116807;27;65358;-52
2024/01/26 03:28:42;;;;;;;;;8.33;5.00;;;;;12.83;84.51;102358.34;5127029;27;45704;-48
2024/01/26 03:31:07;;;;;;;;;7.67;5.67;;;;;12.82;84.58;102353.94;5128390;27;68933;-50
2024/01/26 03:33:32;;;;;;;;;7.00;6.00;;;;;12.82;84.53;102338.75;5117487;27;66142;-50
2024/01/26 03:35:58;;;;;;;;;5.33;5.33;;;;;12.82;84.38;102351.25;5101004;27;45395;-50
2024/01/26 03:38:23;;;;;;;;;6.33;6.00;;;;;12.80;84.20;102343.31;5121060;27;51140;-51
2024/01/26 03:40:48;;;;;;;;;6.33;6.33;;;;;12.79;84.14;102343.34;5119690;27;70614;-51
2024/01/26 03:43:14;;;;;;;;;5.33;3.00;;;;;12.77;84.37;102335.38;5123527;27;72464;-52
2024/01/26 03:45:39;;;;;;;;;3.00;3.00;;;;;12.79;84.69;102335.31;5119924;27;70939;-48
2024/01/26 03:48:05;;;;;;;;;7.00;5.00;;;;;12.80;84.55;102335.28;5120803;27;45365;-49
2024/01/26 03:50:30;;;;;;;;;4.00;4.00;;;;;12.81;84.68;102334.34;5121456;27;45763;-50
2024/01/26 03:52:55;;;;;;;;;5.00;5.00;;;;;12.83;84.33;102335.19;5122097;27;71548;-50
2024/01/26 03:55:21;;;;;;;;;4.00;4.00;;;;;12.84;84.49;102328.91;5121125;27;45444;-48
2024/01/26 03:57:46;;;;;;;;;6.00;6.00;;;;;12.86;84.60;102340.41;5122371;27;45369;-47
2024/01/26 04:00:12;;;;;;;;;6.00;5.67;;;;;12.88;84.48;102333.22;5129051;27;60080;-48
2024/01/26 04:02:37;;;;;;;;;7.00;5.00;;;;;12.90;84.13;102330.47;5132931;27;45482;-47
2024/01/26 04:05:03;;;;;;;;;3.00;3.00;;;;;12.88;84.22;102327.88;5126779;27;72318;-49
2024/01/26 04:07:28;;;;;;;;;6.00;6.00;;;;;12.85;83.89;102328.00;5130674;27;45365;-47
2024/01/26 04:09:53;;;;;;;;;5.67;4.33;;;;;12.83;83.54;102316.47;5117500;27;70605;-49
2024/01/26 04:12:19;;;;;;;;;5.00;5.00;;;;;12.82;83.82;102317.41;5126570;27;51274;-49
2024/01/26 04:14:44;;;;;;;;;4.33;3.67;;;;;12.82;83.78;102317.41;5118850;27;45400;-49
2024/01/26 04:17:10;;;;;;;;;5.67;5.67;;;;;12.81;83.71;102321.00;5121857;27;53390;-48
2024/01/26 04:19:35;;;;;;;;;6.67;6.67;;;;;12.79;83.80;102321.97;5127561;27;54892;-50
2024/01/26 04:22:00;;;;;;;;;6.67;3.33;;;;;12.75;84.01;102318.56;5118661;27;70612;-48
2024/01/26 04:24:25;;;;;;;;;8.00;6.00;;;;;12.74;84.49;102314.13;5119241;27;45392;-49
2024/01/26 04:26:51;;;;;;;;;9.00;6.33;;;;;12.73;84.38;102318.59;5120793;27;62977;-51
2024/01/26 04:29:17;;;;;;;;;8.00;7.00;;;;;12.74;84.25;102328.34;5120653;27;45373;-47
2024/01/26 04:31:42;;;;;;;;;10.00;7.67;;;;;12.72;84.18;102321.31;5122348;27;46284;-49
2024/01/26 04:34:08;;;;;;;;;10.67;9.00;;;;;12.68;84.49;102325.03;5118970;27;45473;-50
2024/01/26 04:36:33;;;;;;;;;9.00;7.00;;;;;12.64;85.41;102308.22;5130388;27;45806;-50
2024/01/26 04:38:59;;;;;;;;;5.67;5.67;;;;;12.65;84.99;102319.81;5123035;27;57334;-46
2024/01/26 04:41:25;;;;;;;;;5.00;5.00;;;;;12.65;84.78;102318.00;5121099;27;46839;-47
2024/01/26 04:43:51;;;;;;;;;6.67;6.67;;;;;12.67;84.60;102318.81;5121896;27;45433;-47
2024/01/26 04:46:16;;;;;;;;;9.67;6.67;;;;;12.70;84.67;102333.88;5116624;27;45366;-51
2024/01/26 04:48:41;;;;;;;;;4.67;4.67;;;;;12.71;84.72;102341.81;5121133;27;45616;-46
2024/01/26 04:51:07;;;;;;;;;5.00;5.00;;;;;12.73;84.42;102341.75;5121114;27;45872;-48
2024/01/26 04:53:32;;;;;;;;;4.00;4.00;;;;;12.74;84.82;102341.69;5124717;27;45236;-47
2024/01/26 04:55:58;;;;;;;;;5.67;5.67;;;;;12.75;84.71;102345.25;5119336;27;45304;-48
2024/01/26 04:58:24;;;;;;;;;5.00;5.00;;;;;12.75;84.59;102345.25;5118975;27;46421;-49
2024/01/26 05:00:49;;;;;;;;;6.00;4.67;;;;;12.77;84.55;102342.53;5125256;27;45494;-50
2024/01/26 05:03:14;;;;;;;;;6.00;5.67;;;;;12.78;84.41;102342.47;5121970;27;45442;-51
2024/01/26 05:05:40;;;;;;;;;7.67;6.67;;;;;12.77;84.56;102346.06;5119804;27;69283;-50
2024/01/26 05:08:05;;;;;;;;;7.67;7.67;;;;;12.79;84.50;102348.66;5126540;27;59140;-49
2024/01/26 05:10:30;;;;;;;;;5.67;5.67;;;;;12.80;84.80;102339.75;5124627;27;45633;-48
2024/01/26 05:12:56;;;;;;;;;4.33;4.33;;;;;12.80;84.83;102331.72;5128518;27;72237;-48
2024/01/26 05:15:21;;;;;;;;;5.00;4.00;;;;;12.82;84.84;102332.56;5126870;27;45755;-48
2024/01/26 05:17:47;;;;;;;;;6.33;5.33;;;;;12.81;85.14;102322.81;5119523;27;58200;-50
2024/01/26 05:20:12;;;;;;;;;6.67;6.33;;;;;12.80;85.42;102307.69;5118696;27;45464;-47
2024/01/26 05:22:38;;;;;;;;;6.00;6.00;;;;;12.79;84.99;102306.84;5125385;27;72938;-49
2024/01/26 05:25:04;;;;;;;;;6.33;5.67;;;;;12.80;85.08;102310.38;5118573;27;60384;-47
2024/01/26 05:27:29;;;;;;;;;6.00;6.00;;;;;12.81;84.91;102312.97;5122262;27;45451;-48
2024/01/26 05:29:55;;;;;;;;;4.00;4.00;;;;;12.84;84.76;102318.22;5114796;27;63409;-47
2024/01/26 05:32:20;;;;;;;;;4.67;3.67;;;;;12.86;84.63;102315.50;5120578;27;45414;-51
2024/01/26 05:34:45;;;;;;;;;5.67;4.33;;;;;12.87;84.29;102314.59;5115308;27;45592;-48
2024/01/26 05:37:11;;;;;;;;;6.00;5.33;;;;;12.88;83.84;102311.84;5111517;27;45482;-47
2024/01/26 05:39:36;;;;;;;;;5.00;5.00;;;;;12.89;84.04;102323.41;5113723;27;61947;-49
2024/01/26 05:42:01;;;;;;;;;4.00;4.00;;;;;12.92;84.37;102336.66;5117074;27;45684;-49
2024/01/26 05:44:27;;;;;;;;;4.33;4.33;;;;;12.92;84.05;102339.31;5120278;27;45568;-47
2024/01/26 05:46:52;;;;;;;;;6.33;4.00;;;;;12.94;83.75;102347.28;5115860;27;70458;-48
2024/01/26 05:49:18;;;;;;;;;7.00;6.00;;;;;12.93;83.98;102335.69;5119203;27;46375;-48
2024/01/26 05:51:44;;;;;;;;;5.00;5.00;;;;;12.91;84.14;102343.78;5111859;27;45470;-52
2024/01/26 05:54:09;;;;;;;;;4.67;4.00;;;;;12.91;84.42;102343.78;5112866;27;45284;-51
2024/01/26 05:56:39;;;;;;;;;6.67;6.00;;;;;12.90;84.18;102335.81;5113688;27;54102;-51
2024/01/26 05:59:04;;;;;;;;;10.00;6.00;;;;;12.88;83.74;102338.56;5115793;27;45479;-48
2024/01/26 06:01:29;;;;;;;;;5.67;5.67;;;;;12.86;84.27;102345.75;5113222;27;71217;-49
2024/01/26 06:03:54;;;;;;;;;5.00;5.00;;;;;12.84;83.79;102346.72;5111937;27;68069;-49
2024/01/26 06:06:20;;;;;;;;;5.67;5.33;;;;;12.82;84.06;102349.44;5112939;27;62420;-47
2024/01/26 06:08:45;;;;;;;;;6.33;6.00;;;;;12.84;84.10;102357.41;5111026;27;77785;-47
2024/01/26 06:11:10;;;;;;;;;11.33;9.00;;;;;12.83;84.07;102350.34;5117451;27;45322;-47
2024/01/26 06:13:36;;;;;;;;;6.33;6.33;;;;;12.83;84.53;102358.34;5112675;27;49754;-50
2024/01/26 06:16:03;;;;;;;;;4.33;4.33;;;;;12.83;85.08;102350.34;5118255;27;50095;-47
2024/01/26 06:18:28;;;;;;;;;5.00;5.00;;;;;12.84;84.54;102357.41;5114001;27;45776;-48
2024/01/26 06:20:54;;;;;;;;;9.00;4.67;;;;;12.83;84.51;102356.53;5134077;27;46162;-49
2024/01/26 06:23:19;;;;;;;;;9.00;8.00;;;;;12.83;84.74;102353.88;5119535;27;66249;-49
2024/01/26 06:25:44;;;;;;;;;5.67;5.67;;;;;12.83;85.02;102345.00;5113810;27;47835;-51
2024/01/26 06:28:10;;;;;;;;;5.00;5.00;;;;;12.84;85.12;102358.28;5112518;27;69718;-51
2024/01/26 06:30:35;;;;;;;;;8.67;5.67;;;;;12.86;85.18;102356.41;5110143;27;45731;-51
2024/01/26 06:33:00;;;;;;;;;8.00;6.00;;;;;12.86;84.59;102364.44;5105430;27;66908;-52
2024/01/26 06:35:26;;;;;;;;;8.00;7.00;;;;;12.84;85.15;102354.72;5126916;27;67872;-48
2024/01/26 06:37:51;;;;;;;;;6.67;6.33;;;;;12.85;85.16;102353.81;5106047;27;57510;-48
2024/01/26 06:40:16;;;;;;;;;5.00;5.00;;;;;12.85;85.23;102372.50;5113226;27;73434;-51
2024/01/26 06:42:42;;;;;;;;;6.00;4.67;;;;;12.85;85.01;102369.81;5111214;27;58485;-53
2024/01/26 06:45:11;;;;;;;;;7.67;7.67;;;;;12.84;85.35;102368.97;5109354;27;45598;-47
2024/01/26 06:47:37;;;;;;;;;5.33;4.67;;;;;12.87;85.38;102378.69;5105564;27;46211;-48
2024/01/26 06:50:04;;;;;;;;;8.00;6.00;;;;;12.88;85.13;102375.94;5106950;27;45647;-49
2024/01/26 06:52:30;;;;;;;;;7.33;5.00;;;;;12.88;84.93;102369.72;5111158;27;45695;-53
2024/01/26 06:54:55;;;;;;;;;6.67;5.33;;;;;12.88;85.09;102377.72;5112401;27;46341;-47
2024/01/26 06:57:20;;;;;;;;;3.00;2.00;;;;;12.88;85.05;102383.97;5112146;27;58420;-50
2024/01/26 06:59:45;;;;;;;;;5.67;5.67;;;;;12.89;85.69;102372.34;5116904;27;45438;-48
2024/01/26 07:02:11;;;;;;;;;6.00;4.00;;;;;12.90;85.34;102376.75;5113612;27;52338;-47
2024/01/26 07:04:36;;;;;;;;;7.00;5.67;;;;;12.92;85.63;102376.72;5118631;27;45317;-50
2024/01/26 07:07:02;;;;;;;;;6.00;6.00;;;;;12.93;85.10;102378.44;5110517;27;75277;-48
2024/01/26 07:09:27;;;;;;;;;7.00;5.33;;;;;12.93;84.80;102378.44;5117707;27;45385;-51
2024/01/26 07:11:53;;;;;;;;;5.67;5.00;;;;;12.91;85.79;102386.50;5104386;27;45823;-51
2024/01/26 07:14:19;;;;;;;;;7.00;7.00;;;;;12.94;84.99;102384.66;5115507;27;62043;-46
2024/01/26 07:16:45;;;;;;;;;3.33;3.33;;;;;12.91;85.67;102377.63;5115268;27;46416;-51
2024/01/26 07:19:10;;;;;;;;;5.00;5.00;;;;;12.90;86.85;102387.44;5117369;27;45467;-50
2024/01/26 07:21:36;;;;;;;;;5.00;5.00;;;;;12.87;86.60;102384.00;5119614;27;45320;-48
2024/01/26 07:24:01;;;;;;;;;8.00;6.00;;;;;12.87;86.52;102400.03;5111922;27;69375;-50
2024/01/26 07:26:27;;;;;;;;;6.33;5.67;;;;;12.87;87.11;102408.03;5111985;27;46270;-53
2024/01/26 07:28:52;;;;;;;;;5.00;5.00;;;;;12.86;87.89;102414.31;5107007;27;45384;-50
2024/01/26 07:31:17;;;;;;;;;6.67;4.33;;;;;12.85;88.20;102413.44;5114002;27;45838;-50
2024/01/26 07:33:43;;;;;;;;;4.33;4.33;;;;;12.85;87.61;102410.78;5113169;27;67468;-49
2024/01/26 07:36:08;;;;;;;;;5.00;4.00;;;;;12.84;87.89;102417.03;5109002;27;54071;-51
2024/01/26 07:38:33;;;;;;;;;4.00;4.00;;;;;12.83;88.01;102417.09;5111525;27;59266;-53
2024/01/26 07:40:59;;;;;;;;;4.67;4.67;;;;;12.81;88.58;102414.44;5112020;27;45474;-54
2024/01/26 07:43:25;;;;;;;;;5.00;3.33;;;;;12.81;88.70;102418.94;5115933;27;45487;-50
2024/01/26 07:45:50;;;;;;;;;6.67;6.67;;;;;12.80;88.70;102425.19;5110560;27;45826;-51
2024/01/26 07:48:15;;;;;;;;;3.33;3.33;;;;;12.78;89.26;102422.56;5118826;27;45385;-50
2024/01/26 07:50:41;;;;;;;;;6.67;5.00;;;;;12.79;89.88;102415.44;5116467;27;45448;-52
2024/01/26 07:53:07;;;;;;;;;8.00;5.00;;;;;12.78;89.62;102429.72;5106654;27;45335;-51
2024/01/26 07:55:32;;;;;;;;;5.33;4.00;;;;;12.78;89.01;102448.41;5113661;27;45502;-52
2024/01/26 07:57:58;;;;;;;;;6.00;4.00;;;;;12.74;89.66;102435.16;5118214;27;45408;-54
2024/01/26 08:00:23;;;;;;;;;4.33;4.00;;;;;12.76;90.68;102439.56;5120365;27;62917;-53
2024/01/26 08:02:48;;;;;;;;;7.67;4.00;;;;;12.78;89.90;102432.41;5115274;27;45429;-53
2024/01/26 08:05:14;;;;;;;;;2.00;2.00;;;;;12.79;90.35;102443.00;5113861;27;74572;-51
2024/01/26 08:07:39;;;;;;;;;4.67;4.67;;;;;12.76;90.47;102450.25;5111451;27;45662;-53
2024/01/26 08:10:05;;;;;;;;;3.67;3.67;;;;;12.76;90.77;102444.91;5108626;27;66010;-50
2024/01/26 08:12:31;;;;;;;;;4.33;3.00;;;;;12.78;91.72;102446.59;5115555;27;45304;-51
2024/01/26 08:14:56;;;;;;;;;4.67;3.00;;;;;12.79;91.06;102451.03;5112606;27;45421;-53
2024/01/26 08:17:22;;;;;;;;;2.00;2.00;;;;;12.83;91.35;102462.50;5117564;27;57927;-59
2024/01/26 08:19:47;;;;;;;;;3.00;3.00;;;;;12.87;91.23;102472.13;5112994;27;45365;-61
2024/01/26 08:22:12;;;;;;;;;5.33;3.67;;;;;12.90;91.24;102480.03;5106630;27;63771;-60
2024/01/26 08:24:37;;;;;;;;;6.50;3.50;;;;;12.93;90.78;102482.59;5113094;27;62352;-58
2024/01/26 08:27:03;;;;;;;;;3.00;3.00;;;;;12.95;91.34;102480.75;5114611;27;65591;-59
2024/01/26 08:29:28;;;;;;;;;3.00;2.67;;;;;12.98;90.66;102487.78;5116870;27;45494;-59
2024/01/26 08:31:54;;;;;;;;;1.67;1.67;;;;;12.98;90.83;102494.00;5116823;27;68401;-59
2024/01/26 08:34:19;;;;;;;;;2.00;2.00;;;;;12.99;91.53;102495.75;5111454;27;45730;-61
2024/01/26 08:36:45;;;;;;;;;3.00;3.00;;;;;12.99;91.70;102495.75;5115451;27;45418;-61
2024/01/26 08:39:13;;;;;;;;;3.00;2.00;;;;;13.00;91.98;102491.31;5117685;27;47508;-61
2024/01/26 08:41:39;;;;;;;;;3.00;3.00;;;;;13.02;91.62;102500.13;5116841;27;45560;-61
2024/01/26 08:44:04;;;;;;;;;0.00;0.00;;;;;13.05;92.17;102508.91;5113651;27;47136;-61
2024/01/26 08:46:30;;;;;;;;;3.33;2.00;;;;;13.05;91.62;102506.25;5112680;27;45399;-61
2024/01/26 08:48:55;;;;;;;;;1.00;1.00;;;;;13.04;92.56;102514.31;5112113;27;45444;-61
2024/01/26 08:51:21;;;;;;;;;3.00;1.67;;;;;13.03;92.56;102525.91;5116043;27;46909;-61
2024/01/26 08:53:47;;;;;;;;;2.33;2.00;;;;;13.03;91.83;102528.59;5117389;27;46220;-64
2024/01/26 08:56:14;;;;;;;;;3.00;1.00;;;;;13.00;92.48;102526.88;5116349;27;45335;-64
2024/01/26 08:58:40;;;;;;;;;3.00;1.00;;;;;12.99;93.12;102524.28;5116272;27;45764;-64
2024/01/26 09:01:05;;;;;;;;;1.00;1.00;;;;;13.00;93.66;102518.88;5120987;27;45581;-64
2024/01/26 09:03:30;;;;;;;;;3.00;3.00;;;;;13.02;92.85;102527.72;5112624;27;73220;-64
2024/01/26 09:05:56;;;;;;;;;4.00;4.00;;;;;13.03;93.20;102518.75;5106170;27;45533;-64
2024/01/26 09:08:21;;;;;;;;;5.00;4.00;;;;;13.04;93.66;102528.53;5112324;27;45872;-64
2024/01/26 09:10:46;;;;;;;;;3.67;3.67;;;;;13.06;93.34;102529.38;5115449;27;45776;-64
2024/01/26 09:13:12;;;;;;;;;3.67;2.00;;;;;13.06;94.16;102533.81;5100112;27;74091;-64
2024/01/26 09:15:37;;;;;;;;;4.00;4.00;;;;;13.08;93.82;102532.84;5112637;27;45522;-64
2024/01/26 09:18:03;;;;;;;;;4.00;3.00;;;;;13.12;94.16;102540.78;5109958;27;46585;-64
2024/01/26 09:20:28;;;;;;;;;3.33;3.33;;;;;13.15;94.38;102541.53;5110039;27;45671;-64
2024/01/26 09:22:53;;;;;;;;;3.00;3.00;;;;;13.17;94.01;102530.81;5113577;27;73713;-65
2024/01/26 09:25:19;;;;;;;;;3.33;3.00;;;;;13.18;93.65;102552.13;5101906;27;71578;-64
2024/01/26 09:27:45;;;;;;;;;2.67;2.67;;;;;13.20;94.46;102552.06;5103427;27;45413;-64
2024/01/26 09:30:11;;;;;;;;;5.67;3.33;;;;;13.23;94.18;102557.28;5117707;27;45503;-64
2024/01/26 09:32:36;;;;;;;;;4.00;4.00;;;;;13.24;93.56;102564.41;5119314;27;46046;-64
2024/01/26 09:35:03;;;;;;;;;4.33;4.00;;;;;13.26;93.19;102580.38;5114363;27;45495;-64
2024/01/26 09:37:29;;;;;;;;;3.33;2.00;;;;;13.24;93.89;102575.97;5113489;27;45422;-64
2024/01/26 09:39:54;;;;;;;;;4.00;2.00;;;;;13.25;93.88;102584.84;5116737;27;45583;-64
2024/01/26 09:42:20;;;;;;;;;2.00;2.00;;;;;13.24;93.62;102589.34;5113884;27;45418;-64
2024/01/26 09:44:45;;;;;;;;;1.00;1.00;;;;;13.26;93.30;102589.28;5112094;27;45436;-64
2024/01/26 09:47:13;;;;;;;;;3.33;1.67;;;;;13.24;93.81;102623.19;5118445;27;70120;-62
2024/01/26 09:49:45;;;;;;;;;1.00;1.00;;;;;13.20;93.53;102629.56;5101104;27;45696;-63
2024/01/26 09:52:11;;;;;;;;;1.00;1.00;;;;;13.16;93.08;102639.47;5112161;27;46404;-63
2024/01/26 09:54:37;;;;;;;;;1.00;1.00;;;;;13.08;91.72;102654.88;5116752;27;45936;-63
2024/01/26 09:57:03;;;;;;;;;0.00;0.00;;;;;12.97;90.18;102652.53;5117418;27;64278;-62
2024/01/26 09:59:29;;;;;;;;;0.67;0.67;;;;;12.91;89.51;102663.41;5116191;27;45429;-63
2024/01/26 10:01:54;;;;;;;;;0.00;0.00;;;;;12.83;88.26;102670.78;5109472;27;74816;-63
2024/01/26 10:04:20;;;;;;;;;0.00;0.00;;;;;12.77;86.71;102660.28;5116111;27;45351;-63
2024/01/26 10:06:48;;;;;;;;;0.00;0.00;;;;;12.72;86.42;102655.06;5107098;27;55823;-63
2024/01/26 10:09:14;;;;;;;;;2.00;1.00;;;;;12.70;85.60;102667.59;5112958;27;45556;-63
2024/01/26 10:11:39;;;;;;;;;0.00;0.00;;;;;12.72;85.78;102679.09;5136328;27;46681;-60
2024/01/26 10:14:05;;;;;;;;;0.00;0.00;;;;;12.74;84.68;102682.59;5116946;27;45483;-62
2024/01/26 10:16:30;;;;;;;;;0.00;0.00;;;;;12.81;83.56;102689.50;5115051;27;45650;-62
2024/01/26 10:18:55;;;;;;;;;0.00;0.00;;;;;12.87;83.14;102688.44;5102023;27;63833;-62
2024/01/26 10:21:22;;;;;;;;;0.33;0.00;;;;;12.90;83.70;102683.00;5109719;27;68926;-63
2024/01/26 10:23:47;;;;;;;;;1.00;0.00;;;;;12.96;82.35;102690.84;5111503;27;45404;-63
2024/01/26 10:26:14;;;;;;;;;0.00;0.00;;;;;13.02;80.79;102696.00;5108286;27;45409;-58
2024/01/26 10:28:39;;;;;;;;;0.00;0.00;;;;;13.07;82.11;102707.44;5108572;27;45409;-58
2024/01/26 10:31:05;;;;;;;;;0.00;0.00;;;;;13.12;81.45;102712.63;5113750;27;46336;-59
2024/01/26 10:33:33;;;;;;;;;0.00;0.00;;;;;13.16;80.96;102714.28;5117599;27;45441;-60
2024/01/26 10:36:00;;;;;;;;;0.00;0.00;;;;;13.25;80.87;102715.78;5117058;27;45443;-61
2024/01/26 10:38:28;;;;;;;;;1.67;0.00;;;;;13.31;78.93;102728.97;5116769;27;45456;-60
2024/01/26 10:41:00;;;;;;;;;2.00;0.00;;;;;13.32;79.04;102724.50;5108304;27;45542;-60
2024/01/26 10:43:26;;;;;;;;;0.00;0.00;;;;;13.37;78.53;102722.59;5113716;27;45582;-60
2024/01/26 10:45:52;;;;;;;;;3.00;0.67;;;;;13.48;78.21;102728.47;5123071;27;66890;-60
2024/01/26 10:48:18;;;;;;;;;0.00;0.00;;;;;13.65;77.68;102727.03;5124402;27;45705;-60
2024/01/26 10:50:43;;;;;;;;;2.00;0.00;;;;;13.85;78.06;102734.44;5111315;27;45730;-60
2024/01/26 10:53:10;;;;;;;;;0.00;0.00;;;;;14.09;76.46;102740.72;5106752;27;71984;-60
2024/01/26 10:55:35;;;;;;;;;0.00;0.00;;;;;14.34;76.25;102740.78;5105391;27;69512;-60
2024/01/26 10:58:01;;;;;;;;;0.33;0.33;;;;;14.45;74.50;102747.56;5120672;27;70570;-59
2024/01/26 11:00:27;;;;;;;;;0.00;0.00;;;;;14.55;73.05;102744.47;5118344;27;45381;-58
2024/01/26 11:02:53;;;;;;;;;0.00;0.00;;;;;14.67;72.25;102748.56;5113997;27;66561;-59
2024/01/26 11:05:18;;;;;;;;;0.00;0.00;;;;;14.74;72.47;102753.69;5116713;27;45446;-58
2024/01/26 11:07:44;;;;;;;;;1.00;1.00;;;;;14.84;72.40;102755.97;5113817;27;65537;-58
2024/01/26 11:10:15;;;;;;;;;2.33;0.00;;;;;14.98;71.74;102763.50;5113436;27;47052;-59
2024/01/26 11:12:40;;;;;;;;;0.00;0.00;;;;;15.12;71.45;102771.03;5099041;27;45346;-58
2024/01/26 11:15:06;;;;;;;;;1.00;0.00;;;;;15.18;69.39;102767.22;5111783;27;69269;-61
2024/01/26 11:17:44;;;;;;;;;3.33;0.33;;;;;15.15;67.53;102770.03;5116072;27;45383;-58